createdAt,value
2024-03-12T00:00:17.580Z,4.07
2024-03-12T00:02:47.960Z,3.83
2024-03-12T00:05:22.322Z,3.50
2024-03-12T00:07:51.998Z,3.97
2024-03-12T00:10:22.837Z,3.67
2024-03-12T00:12:54.195Z,4.40
2024-03-12T00:15:24.518Z,4.03
2024-03-12T00:17:54.808Z,4.40
2024-03-12T00:20:31.689Z,4.80
2024-03-12T00:23:00.185Z,4.73
2024-03-12T00:25:29.469Z,4.00
2024-03-12T00:27:57.093Z,4.70
2024-03-12T00:30:28.600Z,4.63
2024-03-12T00:32:59.977Z,4.87
2024-03-12T00:35:30.433Z,4.90
2024-03-12T00:38:00.702Z,5.20
2024-03-12T00:40:40.363Z,4.97
2024-03-12T00:43:08.241Z,5.17
2024-03-12T00:45:39.888Z,5.10
2024-03-12T00:48:11.498Z,5.87
2024-03-12T00:50:39.617Z,5.13
2024-03-12T00:53:08.678Z,5.17
2024-03-12T00:55:41.826Z,5.90
2024-03-12T00:58:12.497Z,6.10
2024-03-12T01:00:41.643Z,5.47
2024-03-12T01:03:13.517Z,5.47
2024-03-12T01:05:40.990Z,5.70
2024-03-12T01:08:09.430Z,5.87
2024-03-12T01:10:37.263Z,5.87
2024-03-12T01:13:07.869Z,5.90
2024-03-12T01:15:36.354Z,5.10
2024-03-12T01:18:04.940Z,5.43
2024-03-12T01:20:35.573Z,5.73
2024-03-12T01:23:03.127Z,5.80
2024-03-12T01:25:36.119Z,6.40
2024-03-12T01:28:03.642Z,5.83
2024-03-12T01:30:31.927Z,5.97
2024-03-12T01:32:59.783Z,5.93
2024-03-12T01:35:26.842Z,5.70
2024-03-12T01:37:54.095Z,5.60
2024-03-12T01:40:24.148Z,5.50
2024-03-12T01:42:58.206Z,5.67
2024-03-12T01:45:26.935Z,5.93
2024-03-12T01:47:56.400Z,5.33
2024-03-12T01:50:25.916Z,5.40
2024-03-12T01:53:07.370Z,5.17
2024-03-12T01:55:36.131Z,5.10
2024-03-12T01:58:03.630Z,5.03
2024-03-12T02:00:34.321Z,5.10
2024-03-12T02:03:02.809Z,5.43
2024-03-12T02:05:29.824Z,5.47
2024-03-12T02:07:57.047Z,4.80
2024-03-12T02:10:26.167Z,5.50
2024-03-12T02:12:53.127Z,5.30
2024-03-12T02:15:22.328Z,4.87
2024-03-12T02:17:53.623Z,5.20
2024-03-12T02:20:22.744Z,5.07
2024-03-12T02:22:55.566Z,4.77
2024-03-12T02:25:23.515Z,4.90
2024-03-12T02:27:51.318Z,5.10
2024-03-12T02:30:18.513Z,4.73
2024-03-12T02:32:48.722Z,5.53
2024-03-12T02:35:17.046Z,5.33
2024-03-12T02:37:44.353Z,5.73
2024-03-12T02:40:16.080Z,5.90
2024-03-12T02:42:44.519Z,6.23
2024-03-12T02:45:22.144Z,5.77
2024-03-12T02:47:49.423Z,6.67
2024-03-12T02:50:19.568Z,6.50
2024-03-12T02:52:46.983Z,6.50
2024-03-12T02:55:14.297Z,7.20
2024-03-12T02:57:41.357Z,7.13
2024-03-12T03:00:16.162Z,7.00
2024-03-12T03:02:43.922Z,7.03
2024-03-12T03:05:11.516Z,7.20
2024-03-12T03:07:41.588Z,8.40
2024-03-12T03:10:09.147Z,7.30
2024-03-12T03:12:36.305Z,8.83
2024-03-12T03:15:03.307Z,9.30
2024-03-12T03:17:30.379Z,9.07
2024-03-12T03:19:57.417Z,10.10
2024-03-12T03:22:24.566Z,10.00
2024-03-12T03:24:51.514Z,9.80
2024-03-12T03:27:18.480Z,10.13
2024-03-12T03:29:45.759Z,10.03
2024-03-12T03:32:12.676Z,10.60
2024-03-12T03:34:39.807Z,11.03
2024-03-12T03:37:07.999Z,13.27
2024-03-12T03:39:37.136Z,12.23
2024-03-12T03:42:04.462Z,12.83
2024-03-12T03:44:31.444Z,13.80
2024-03-12T03:46:58.399Z,14.03
2024-03-12T03:49:25.409Z,15.13
2024-03-12T03:51:53.419Z,16.17
2024-03-12T03:54:20.375Z,19.20
2024-03-12T03:56:48.005Z,20.40
2024-03-12T03:59:17.592Z,20.43
2024-03-12T04:01:44.972Z,21.03
2024-03-12T04:04:14.490Z,20.67
2024-03-12T04:06:45.036Z,20.93
2024-03-12T04:09:12.839Z,21.33
2024-03-12T04:11:40.134Z,21.13
2024-03-12T04:14:08.912Z,21.37
2024-03-12T04:16:35.975Z,22.73
2024-03-12T04:19:03.223Z,22.00
2024-03-12T04:21:30.342Z,20.37
2024-03-12T04:23:57.235Z,21.63
2024-03-12T04:26:24.338Z,20.40
2024-03-12T04:28:51.097Z,21.37
2024-03-12T04:31:21.792Z,21.17
2024-03-12T04:33:49.042Z,21.20
2024-03-12T04:36:15.956Z,23.10
2024-03-12T04:38:42.889Z,21.87
2024-03-12T04:41:10.849Z,22.23
2024-03-12T04:43:38.067Z,21.73
2024-03-12T04:46:05.490Z,21.67
2024-03-12T04:48:32.676Z,21.20
2024-03-12T04:50:59.660Z,21.17
2024-03-12T04:53:26.645Z,22.33
2024-03-12T04:55:53.839Z,22.37
2024-03-12T04:58:20.650Z,23.13
2024-03-12T05:00:48.818Z,25.07
2024-03-12T05:03:15.987Z,24.47
2024-03-12T05:05:42.824Z,23.23
2024-03-12T05:08:09.798Z,24.97
2024-03-12T05:10:39.483Z,25.27
2024-03-12T05:13:06.553Z,24.30
2024-03-12T05:15:33.468Z,24.47
2024-03-12T05:18:00.566Z,25.53
2024-03-12T05:20:27.475Z,23.90
2024-03-12T05:22:56.404Z,25.83
2024-03-12T05:25:41.149Z,25.63
2024-03-12T05:28:10.089Z,25.03
2024-03-12T05:30:38.306Z,25.90
2024-03-12T05:33:11.071Z,25.47
2024-03-12T05:35:39.971Z,27.27
2024-03-12T05:38:13.487Z,28.10
2024-03-12T05:41:05.671Z,27.47
2024-03-12T05:43:51.178Z,28.83
2024-03-12T05:46:36.904Z,27.93
2024-03-12T05:49:05.451Z,26.97
2024-03-12T05:51:33.622Z,28.73
2024-03-12T05:54:00.442Z,28.93
2024-03-12T05:56:27.983Z,28.43
2024-03-12T05:58:54.829Z,28.70
2024-03-12T06:01:25.447Z,28.30
2024-03-12T06:03:53.445Z,27.80
2024-03-12T06:06:20.324Z,28.30
2024-03-12T06:08:47.300Z,29.83
2024-03-12T06:11:14.686Z,28.43
2024-03-12T06:13:41.552Z,30.77
2024-03-12T06:16:09.319Z,30.57
2024-03-12T06:18:37.023Z,30.73
2024-03-12T06:21:04.262Z,32.57
2024-03-12T06:23:31.017Z,31.80
2024-03-12T06:25:58.009Z,31.67
2024-03-12T06:28:28.714Z,30.13
2024-03-12T06:30:56.692Z,29.37
2024-03-12T06:33:23.867Z,29.37
2024-03-12T06:35:50.751Z,29.20
2024-03-12T06:38:21.397Z,29.10
2024-03-12T06:40:49.733Z,26.07
2024-03-12T06:43:18.902Z,27.70
2024-03-12T06:45:46.230Z,26.50
2024-03-12T06:48:14.883Z,27.63
2024-03-12T06:50:42.304Z,28.93
2024-03-12T06:53:10.520Z,31.30
2024-03-12T06:55:39.936Z,31.97
2024-03-12T06:58:12.464Z,30.87
2024-03-12T07:00:46.001Z,34.00
2024-03-12T07:03:15.634Z,33.30
2024-03-12T07:05:48.647Z,32.67
2024-03-12T07:08:18.256Z,32.03
2024-03-12T07:10:46.790Z,35.43
2024-03-12T07:13:14.768Z,35.90
2024-03-12T07:15:43.902Z,34.23
2024-03-12T07:18:11.071Z,33.13
2024-03-12T07:20:38.334Z,34.43
2024-03-12T07:23:07.377Z,34.40
2024-03-12T07:25:34.856Z,35.03
2024-03-12T07:28:09.493Z,36.70
2024-03-12T07:30:37.241Z,35.43
2024-03-12T07:33:05.161Z,35.07
2024-03-12T07:35:35.754Z,34.60
2024-03-12T07:38:04.278Z,35.13
2024-03-12T07:40:31.973Z,34.63
2024-03-12T07:43:00.504Z,33.93
2024-03-12T07:45:28.252Z,34.30
2024-03-12T07:47:56.629Z,32.87
2024-03-12T07:50:23.704Z,32.47
2024-03-12T07:52:52.101Z,32.67
2024-03-12T07:55:19.041Z,32.50
2024-03-12T07:57:46.557Z,31.57
2024-03-12T08:00:17.987Z,31.57
2024-03-12T08:02:45.236Z,30.40
2024-03-12T08:05:13.639Z,31.60
2024-03-12T08:07:40.617Z,29.87
2024-03-12T08:10:10.493Z,31.13
2024-03-12T08:12:41.211Z,28.73
2024-03-12T08:15:09.911Z,28.13
2024-03-12T08:17:38.950Z,28.77
2024-03-12T08:20:07.650Z,28.77
2024-03-12T08:22:34.720Z,30.03
2024-03-12T08:25:02.146Z,27.90
2024-03-12T08:27:29.325Z,29.10
2024-03-12T08:29:58.416Z,28.43
2024-03-12T08:32:26.280Z,28.03
2024-03-12T08:34:53.743Z,27.80
2024-03-12T08:37:23.718Z,28.53
2024-03-12T08:39:54.533Z,27.67
2024-03-12T08:42:22.240Z,27.30
2024-03-12T08:44:49.324Z,26.97
2024-03-12T08:47:16.376Z,28.30
2024-03-12T08:49:44.045Z,28.27
2024-03-12T08:52:11.144Z,27.83
2024-03-12T08:54:38.895Z,29.20
2024-03-12T08:57:06.009Z,28.10
2024-03-12T08:59:32.877Z,26.33
2024-03-12T09:02:01.582Z,27.37
2024-03-12T09:04:31.821Z,29.83
2024-03-12T09:06:59.076Z,28.50
2024-03-12T09:09:28.406Z,27.37
2024-03-12T09:11:57.270Z,27.20
2024-03-12T09:14:24.927Z,24.83
2024-03-12T09:16:53.153Z,24.33
2024-03-12T09:19:22.637Z,23.63
2024-03-12T09:21:49.476Z,22.30
2024-03-12T09:24:16.673Z,21.97
2024-03-12T09:26:45.329Z,23.27
2024-03-12T09:29:14.358Z,22.27
2024-03-12T09:31:43.182Z,22.37
2024-03-12T09:34:11.745Z,21.93
2024-03-12T09:36:39.074Z,20.97
2024-03-12T09:39:12.539Z,21.03
2024-03-12T09:41:45.992Z,21.03
2024-03-12T09:44:13.473Z,20.67
2024-03-12T09:46:42.400Z,18.97
2024-03-12T09:49:14.730Z,18.47
2024-03-12T09:51:43.459Z,18.03
2024-03-12T09:54:10.744Z,17.70
2024-03-12T09:56:39.001Z,16.33
2024-03-12T09:59:09.079Z,15.13
2024-03-12T10:01:40.005Z,16.23
2024-03-12T10:04:07.797Z,14.80
2024-03-12T10:06:34.994Z,15.07
2024-03-12T10:09:02.402Z,12.60
2024-03-12T10:11:31.481Z,12.87
2024-03-12T10:13:59.982Z,13.50
2024-03-12T10:16:29.128Z,12.87
2024-03-12T10:19:16.015Z,12.00
2024-03-12T10:21:43.674Z,11.60
2024-03-12T10:24:14.982Z,11.53
2024-03-12T10:26:46.300Z,10.13
2024-03-12T10:29:15.049Z,10.60
2024-03-12T10:31:45.100Z,11.40
2024-03-12T10:34:24.878Z,9.90
2024-03-12T10:36:52.059Z,9.83
2024-03-12T10:39:30.072Z,10.13
2024-03-12T10:42:00.653Z,9.77
2024-03-12T10:44:29.216Z,9.77
2024-03-12T10:47:00.676Z,10.23
2024-03-12T10:49:29.534Z,9.17
2024-03-12T10:51:59.039Z,9.40
2024-03-12T10:54:31.234Z,10.90
2024-03-12T10:57:00.164Z,9.70
2024-03-12T10:59:33.966Z,9.90
2024-03-12T11:02:06.085Z,9.97
2024-03-12T11:04:36.703Z,9.63
2024-03-12T11:07:05.149Z,9.27
2024-03-12T11:09:34.677Z,10.40
2024-03-12T11:12:02.184Z,10.43
2024-03-12T11:14:29.266Z,11.23
2024-03-12T11:16:56.420Z,10.13
2024-03-12T11:19:27.776Z,10.03
2024-03-12T11:22:02.540Z,10.07
2024-03-12T11:24:31.440Z,11.13
2024-03-12T11:27:01.954Z,10.30
2024-03-12T11:30:05.159Z,12.03
2024-03-12T11:32:36.476Z,11.73
2024-03-12T11:35:10.826Z,13.20
2024-03-12T11:37:39.115Z,12.40
2024-03-12T11:40:32.369Z,14.23
2024-03-12T11:42:59.748Z,13.63
2024-03-12T11:45:43.706Z,13.23
2024-03-12T11:48:11.941Z,12.23
2024-03-12T11:50:48.694Z,12.63
2024-03-12T11:53:24.170Z,12.53
2024-03-12T11:56:09.277Z,12.40
2024-03-12T11:58:48.289Z,12.97
2024-03-12T12:01:23.577Z,13.73
2024-03-12T12:04:10.931Z,12.67
2024-03-12T12:06:38.173Z,13.53
2024-03-12T12:09:07.422Z,12.80
2024-03-12T12:11:38.962Z,13.90
2024-03-12T12:14:07.382Z,13.30
2024-03-12T12:16:34.436Z,12.70
2024-03-12T12:19:13.422Z,12.77
2024-03-12T12:21:44.203Z,12.30
2024-03-12T12:24:12.525Z,13.30
2024-03-12T12:26:39.964Z,12.63
2024-03-12T12:29:09.121Z,11.53
2024-03-12T12:31:38.239Z,11.10
2024-03-12T12:34:07.154Z,11.00
2024-03-12T12:36:40.070Z,10.67
2024-03-12T12:39:11.574Z,9.80
2024-03-12T12:41:44.681Z,11.10
2024-03-12T12:44:22.155Z,10.73
2024-03-12T12:46:50.020Z,10.50
2024-03-12T12:49:18.673Z,10.67
2024-03-12T12:51:47.590Z,10.03
2024-03-12T12:54:20.318Z,11.37
2024-03-12T12:56:50.446Z,10.90
2024-03-12T12:59:21.946Z,11.00
2024-03-12T13:01:49.925Z,11.00
2024-03-12T13:04:21.593Z,11.20
2024-03-12T13:06:49.180Z,11.80
2024-03-12T13:09:42.265Z,11.33
2024-03-12T13:12:10.720Z,10.67
2024-03-12T13:14:43.250Z,12.17
2024-03-12T13:17:11.213Z,11.23
2024-03-12T13:19:38.422Z,11.93
2024-03-12T13:22:10.386Z,11.50
2024-03-12T13:24:41.900Z,11.13
2024-03-12T13:27:11.216Z,11.23
2024-03-12T13:29:38.414Z,10.97
2024-03-12T13:32:06.732Z,11.07
2024-03-12T13:34:34.063Z,10.97
2024-03-12T13:37:02.028Z,12.23
2024-03-12T13:39:30.844Z,12.00
2024-03-12T13:41:58.032Z,12.83
2024-03-12T13:44:24.980Z,12.13
2024-03-12T13:46:51.850Z,13.30
2024-03-12T13:49:19.277Z,13.13
2024-03-12T13:51:47.700Z,13.43
2024-03-12T13:54:16.375Z,13.13
2024-03-12T13:56:43.850Z,13.53
2024-03-12T13:59:13.694Z,14.07
2024-03-12T14:01:42.347Z,13.30
2024-03-12T14:04:12.921Z,13.17
2024-03-12T14:06:40.399Z,12.90
2024-03-12T14:09:13.654Z,12.77
2024-03-12T14:11:40.703Z,12.53
2024-03-12T14:14:11.288Z,12.73
2024-03-12T14:16:38.494Z,11.57
2024-03-12T14:19:05.700Z,12.93
2024-03-12T14:21:34.151Z,12.33
2024-03-12T14:24:03.678Z,13.20
2024-03-12T14:26:30.659Z,12.73
2024-03-12T14:28:57.578Z,13.50
2024-03-12T14:31:26.641Z,12.43
2024-03-12T14:33:54.045Z,12.80
2024-03-12T14:36:21.163Z,13.00
2024-03-12T14:38:51.026Z,13.30
2024-03-12T14:41:21.747Z,14.23
2024-03-12T14:43:49.061Z,15.00
2024-03-12T14:46:18.831Z,15.77
2024-03-12T14:48:46.009Z,15.27
2024-03-12T14:51:13.514Z,15.47
2024-03-12T14:53:40.745Z,16.80
2024-03-12T14:56:07.929Z,16.90
2024-03-12T14:58:35.121Z,18.60
2024-03-12T15:01:02.565Z,18.27
2024-03-12T15:03:29.500Z,18.67
2024-03-12T15:05:57.072Z,19.73
2024-03-12T15:08:24.445Z,20.70
2024-03-12T15:10:51.617Z,20.77
2024-03-12T15:13:19.383Z,19.87
2024-03-12T15:15:47.259Z,20.60
2024-03-12T15:18:14.708Z,20.30
2024-03-12T15:20:43.544Z,19.33
2024-03-12T15:23:10.783Z,20.00
2024-03-12T15:25:38.062Z,19.70
2024-03-12T15:28:05.744Z,20.17
2024-03-12T15:30:34.892Z,19.33
2024-03-12T15:33:01.943Z,20.40
2024-03-12T15:35:29.312Z,20.50
2024-03-12T15:37:59.630Z,19.20
2024-03-12T15:40:26.977Z,20.20
2024-03-12T15:42:54.218Z,20.63
2024-03-12T15:45:21.992Z,19.80
2024-03-12T15:47:49.060Z,20.40
2024-03-12T15:50:18.999Z,20.70
2024-03-12T15:52:47.260Z,18.53
2024-03-12T15:55:14.549Z,19.20
2024-03-12T15:57:42.521Z,19.50
2024-03-12T16:00:14.745Z,20.37
2024-03-12T16:02:42.512Z,19.80
2024-03-12T16:05:10.103Z,18.50
2024-03-12T16:07:37.494Z,20.40
2024-03-12T16:10:05.693Z,19.27
2024-03-12T16:12:33.160Z,17.43
2024-03-12T16:15:00.346Z,20.10
2024-03-12T16:17:31.140Z,19.47
2024-03-12T16:19:58.454Z,19.63
2024-03-12T16:22:25.448Z,20.60
2024-03-12T16:24:52.521Z,19.90
2024-03-12T16:27:19.778Z,19.30
2024-03-12T16:29:48.049Z,19.90
2024-03-12T16:32:15.659Z,20.10
2024-03-12T16:34:43.334Z,18.77
2024-03-12T16:37:10.595Z,18.43
2024-03-12T16:39:39.880Z,19.37
2024-03-12T16:42:07.501Z,19.47
2024-03-12T16:44:34.438Z,19.07
2024-03-12T16:47:05.964Z,20.60
2024-03-12T16:49:34.077Z,18.97
2024-03-12T16:52:02.410Z,20.20
2024-03-12T16:54:31.765Z,19.47
2024-03-12T16:57:00.094Z,19.87
2024-03-12T16:59:27.207Z,20.47
2024-03-12T17:01:54.481Z,20.20
2024-03-12T17:04:22.140Z,20.13
2024-03-12T17:06:57.647Z,20.87
2024-03-12T17:09:25.787Z,20.17
2024-03-12T17:11:52.994Z,20.63
2024-03-12T17:14:27.636Z,21.70
2024-03-12T17:17:06.300Z,21.00
2024-03-12T17:19:39.494Z,20.40
2024-03-12T17:22:07.373Z,19.80
2024-03-12T17:24:35.470Z,21.40
2024-03-12T17:27:05.918Z,19.30
2024-03-12T17:29:33.384Z,20.63
2024-03-12T17:32:00.635Z,20.87
2024-03-12T17:34:29.077Z,21.23
2024-03-12T17:36:59.939Z,20.60
2024-03-12T17:39:29.962Z,21.13
2024-03-12T17:41:57.133Z,20.80
2024-03-12T17:44:25.005Z,22.60
2024-03-12T17:46:54.722Z,22.30
2024-03-12T17:49:26.942Z,21.17
2024-03-12T17:51:55.121Z,20.97
2024-03-12T17:54:22.732Z,20.63
2024-03-12T17:56:51.732Z,20.67
2024-03-12T17:59:20.131Z,20.30
2024-03-12T18:01:47.924Z,20.77
2024-03-12T18:04:15.811Z,21.37
2024-03-12T18:06:45.401Z,21.17
2024-03-12T18:09:15.669Z,22.37
2024-03-12T18:11:43.927Z,21.20
2024-03-12T18:14:11.333Z,21.23
2024-03-12T18:16:39.246Z,21.87
2024-03-12T18:19:07.373Z,22.10
2024-03-12T18:21:35.479Z,22.47
2024-03-12T18:24:02.695Z,22.50
2024-03-12T18:26:29.586Z,25.67
2024-03-12T18:28:58.008Z,24.13
2024-03-12T18:31:25.623Z,23.87
2024-03-12T18:33:52.702Z,23.60
2024-03-12T18:36:20.105Z,24.77
2024-03-12T18:38:46.971Z,25.80
2024-03-12T18:41:15.180Z,24.63
2024-03-12T18:43:42.189Z,24.27
2024-03-12T18:46:10.106Z,24.40
2024-03-12T18:48:37.581Z,23.60
2024-03-12T18:51:06.240Z,23.40
2024-03-12T18:53:34.737Z,23.77
2024-03-12T18:56:02.568Z,24.93
2024-03-12T18:58:30.462Z,25.20
2024-03-12T19:00:58.418Z,24.70
2024-03-12T19:03:32.226Z,25.40
2024-03-12T19:06:10.458Z,25.60
2024-03-12T19:08:45.294Z,23.93
2024-03-12T19:11:12.809Z,25.57
2024-03-12T19:13:40.355Z,25.60
2024-03-12T19:16:10.680Z,27.43
2024-03-12T19:18:49.286Z,26.93
2024-03-12T19:21:18.110Z,25.67
2024-03-12T19:23:45.256Z,26.47
2024-03-12T19:26:14.481Z,25.33
2024-03-12T19:28:43.692Z,26.47
2024-03-12T19:31:11.367Z,25.77
2024-03-12T19:33:39.899Z,27.77
2024-03-12T19:36:07.754Z,25.87
2024-03-12T19:38:35.135Z,27.13
2024-03-12T19:41:02.879Z,26.60
2024-03-12T19:43:30.764Z,26.30
2024-03-12T19:46:00.326Z,27.13
2024-03-12T19:48:28.586Z,26.50
2024-03-12T19:50:56.928Z,26.30
2024-03-12T19:53:24.008Z,25.23
2024-03-12T19:55:52.645Z,27.27
2024-03-12T19:58:20.395Z,27.03
2024-03-12T20:00:51.521Z,26.60
2024-03-12T20:03:23.939Z,28.57
2024-03-12T20:05:51.884Z,26.67
2024-03-12T20:08:19.790Z,28.13
2024-03-12T20:10:47.555Z,28.00
2024-03-12T20:13:14.970Z,27.27
2024-03-12T20:15:47.076Z,28.00
2024-03-12T20:18:16.018Z,27.40
2024-03-12T20:20:44.686Z,27.17
2024-03-12T20:23:12.440Z,27.07
2024-03-12T20:25:41.169Z,27.90
2024-03-12T20:28:11.055Z,26.67
2024-03-12T20:30:39.918Z,26.43
2024-03-12T20:33:10.198Z,27.57
2024-03-12T20:35:39.426Z,28.13
2024-03-12T20:38:10.147Z,27.40
2024-03-12T20:40:37.614Z,28.47
2024-03-12T20:43:07.362Z,28.60
2024-03-12T20:45:35.722Z,26.93
2024-03-12T20:48:04.346Z,29.50
2024-03-12T20:50:31.986Z,28.47
2024-03-12T20:53:00.763Z,29.10
2024-03-12T20:55:27.802Z,30.13
2024-03-12T20:57:54.772Z,27.53
2024-03-12T21:00:29.844Z,28.40
2024-03-12T21:02:57.061Z,28.13
2024-03-12T21:05:24.169Z,28.27
2024-03-12T21:07:53.565Z,30.17
2024-03-12T21:10:21.062Z,28.97
2024-03-12T21:12:51.142Z,27.50
2024-03-12T21:15:19.990Z,28.87
2024-03-12T21:17:47.522Z,27.13
2024-03-12T21:20:23.392Z,27.73
2024-03-12T21:22:50.882Z,26.40
2024-03-12T21:25:19.056Z,27.17
2024-03-12T21:27:48.285Z,27.37
2024-03-12T21:30:17.747Z,27.97
2024-03-12T21:32:45.542Z,27.33
2024-03-12T21:35:13.435Z,27.50
2024-03-12T21:37:40.681Z,26.73
2024-03-12T21:40:12.727Z,25.57
2024-03-12T21:45:27.841Z,26.73
2024-03-12T21:47:54.940Z,25.03
2024-03-12T21:50:21.815Z,24.37
2024-03-12T21:52:48.951Z,23.77
2024-03-12T21:55:16.034Z,23.87
2024-03-12T21:57:44.737Z,24.73
2024-03-12T22:00:20.594Z,23.67
2024-03-12T22:02:48.491Z,23.30
2024-03-12T22:05:17.222Z,23.03
2024-03-12T22:07:45.908Z,23.03
2024-03-12T22:10:13.720Z,22.63
2024-03-12T22:12:57.310Z,23.87
2024-03-12T22:15:25.793Z,22.63
2024-03-12T22:17:53.928Z,23.60
2024-03-12T22:20:33.022Z,22.07
2024-03-12T22:26:00.909Z,22.33
2024-03-12T22:28:31.340Z,21.00
2024-03-12T22:30:59.040Z,20.40
2024-03-12T22:33:26.100Z,19.97
2024-03-12T22:35:53.359Z,20.90
2024-03-12T22:38:20.441Z,20.77
2024-03-12T22:40:48.092Z,22.57
2024-03-12T22:43:15.972Z,21.47
2024-03-12T22:45:45.831Z,20.30
2024-03-12T22:48:13.672Z,20.77
2024-03-12T22:50:41.771Z,20.50
2024-03-12T22:53:11.928Z,20.57
2024-03-12T22:55:39.182Z,21.00
2024-03-12T22:58:07.166Z,20.47
2024-03-12T23:03:35.144Z,20.10
2024-03-12T23:06:02.315Z,20.13
2024-03-12T23:08:32.244Z,20.93
2024-03-12T23:11:00.061Z,20.73
2024-03-12T23:13:27.658Z,20.50
2024-03-12T23:15:54.913Z,20.03
2024-03-12T23:18:25.833Z,19.40
2024-03-12T23:20:53.814Z,20.40
2024-03-12T23:23:24.723Z,20.40
2024-03-12T23:25:52.403Z,19.73
2024-03-12T23:28:22.539Z,19.47
2024-03-12T23:30:49.830Z,20.50
2024-03-12T23:33:16.735Z,19.43
2024-03-12T23:35:43.773Z,19.93
2024-03-12T23:38:12.991Z,19.57
2024-03-12T23:40:40.064Z,20.27
2024-03-12T23:43:07.062Z,21.73
2024-03-12T23:45:34.293Z,21.50
2024-03-12T23:48:04.045Z,22.73
2024-03-12T23:50:31.529Z,22.57
2024-03-12T23:52:58.608Z,23.20
2024-03-12T23:55:26.080Z,23.17
2024-03-12T23:57:54.530Z,22.43
